FIN4RL EFHK-LKPR
Flight info
| Callsign | FIN4RL |
|---|---|
| Flight time | 1h 53m |
| Altitude | 36000 |
| Route | VALOX4Q VALOX Y117 ROSAX DCT PIMEX P739 DEREX DCT ANFEV DCT PENOR/N0444F390 DCT BEZMI/N0437F360 DCT LATAG/N0437F380 P861 RASAN DCT ASTEL DCT GOLOP GOLOP5R |
| Aircraft | A320/M-SDE3FGHIRWY/LB1 |
Departure
| Time | 2026-04-25 15:33 |
|---|---|
| Airport | Helsinki Vantaa Airport (EFHK) |
Arrival
| Time | 2026-04-25 17:26 |
|---|---|
| Airport | Václav Havel Airport Prague (LKPR) |
| Time | Latitude | Longitude | Altitude | Speed | Heading |
|---|---|---|---|---|---|
| 2026-04-25 14:53 | 60.31965 | 24.96740 | 167 ft | 0 kts | 175° |
| 2026-04-25 15:25 | 60.31981 | 24.96736 | 166 ft | 4 kts | 169° |
| 2026-04-25 15:25 | 60.32006 | 24.96721 | 166 ft | 4 kts | 146° |
| 2026-04-25 15:25 | 60.32019 | 24.96692 | 166 ft | 4 kts | 71° |
| 2026-04-25 15:26 | 60.32017 | 24.96681 | 166 ft | 0 kts | 47° |
| 2026-04-25 15:27 | 60.32027 | 24.96702 | 166 ft | 4 kts | 47° |
| 2026-04-25 15:28 | 60.32056 | 24.96766 | 166 ft | 8 kts | 47° |
| 2026-04-25 15:28 | 60.32104 | 24.96861 | 166 ft | 11 kts | 25° |
| 2026-04-25 15:28 | 60.32185 | 24.96804 | 166 ft | 15 kts | 330° |
| 2026-04-25 15:28 | 60.32284 | 24.96689 | 167 ft | 18 kts | 330° |
| 2026-04-25 15:29 | 60.32386 | 24.96570 | 174 ft | 16 kts | 330° |
| 2026-04-25 15:29 | 60.32493 | 24.96445 | 174 ft | 20 kts | 329° |
| 2026-04-25 15:29 | 60.32622 | 24.96294 | 172 ft | 23 kts | 330° |
| 2026-04-25 15:29 | 60.32766 | 24.96125 | 173 ft | 24 kts | 329° |
| 2026-04-25 15:30 | 60.32898 | 24.95972 | 175 ft | 22 kts | 330° |
| 2026-04-25 15:30 | 60.33032 | 24.95815 | 181 ft | 22 kts | 329° |
| 2026-04-25 15:30 | 60.33139 | 24.95643 | 180 ft | 19 kts | 317° |
| 2026-04-25 15:30 | 60.33207 | 24.95474 | 182 ft | 15 kts | 283° |
| 2026-04-25 15:31 | 60.33154 | 24.95270 | 178 ft | 17 kts | 227° |
| 2026-04-25 15:31 | 60.33109 | 24.95036 | 178 ft | 20 kts | 269° |
| 2026-04-25 15:31 | 60.33114 | 24.94757 | 182 ft | 20 kts | 272° |
| 2026-04-25 15:31 | 60.33120 | 24.94497 | 190 ft | 17 kts | 271° |
| 2026-04-25 15:32 | 60.33067 | 24.94287 | 195 ft | 19 kts | 229° |
| 2026-04-25 15:32 | 60.32947 | 24.94022 | 185 ft | 49 kts | 228° |
| 2026-04-25 15:32 | 60.32549 | 24.93147 | 178 ft | 115 kts | 227° |
| 2026-04-25 15:33 | 60.31140 | 24.90022 | 893 ft | 159 kts | 232° |
| 2026-04-25 15:33 | 60.30435 | 24.88298 | 1617 ft | 162 kts | 241° |
| 2026-04-25 15:33 | 60.29764 | 24.86293 | 1961 ft | 183 kts | 242° |
| 2026-04-25 15:33 | 60.29028 | 24.84003 | 2221 ft | 207 kts | 242° |
| 2026-04-25 15:34 | 60.28199 | 24.81433 | 2585 ft | 231 kts | 241° |
| 2026-04-25 15:34 | 60.27300 | 24.78673 | 3191 ft | 244 kts | 241° |
| 2026-04-25 15:34 | 60.26483 | 24.75659 | 4014 ft | 247 kts | 249° |
| 2026-04-25 15:34 | 60.26249 | 24.74579 | 4299 ft | 249 kts | 250° |
| 2026-04-25 15:35 | 60.24520 | 24.65818 | 6500 ft | 259 kts | 246° |
| 2026-04-25 15:35 | 60.23512 | 24.62782 | 7297 ft | 265 kts | 229° |
| 2026-04-25 15:35 | 60.22053 | 24.60488 | 8143 ft | 272 kts | 211° |
| 2026-04-25 15:36 | 60.18615 | 24.57159 | 9699 ft | 281 kts | 209° |
| 2026-04-25 15:36 | 60.16777 | 24.55387 | 9909 ft | 304 kts | 208° |
| 2026-04-25 15:36 | 60.14846 | 24.53524 | 10348 ft | 316 kts | 208° |
| 2026-04-25 15:37 | 60.12847 | 24.51601 | 11073 ft | 320 kts | 208° |
| 2026-04-25 15:37 | 60.10825 | 24.49656 | 11785 ft | 324 kts | 208° |
| 2026-04-25 15:37 | 60.08793 | 24.47705 | 12557 ft | 325 kts | 208° |
| 2026-04-25 15:37 | 60.06744 | 24.45740 | 13292 ft | 327 kts | 207° |
| 2026-04-25 15:38 | 60.04684 | 24.43768 | 13955 ft | 329 kts | 208° |
| 2026-04-25 15:38 | 60.02614 | 24.41785 | 14597 ft | 331 kts | 208° |
| 2026-04-25 15:38 | 60.00519 | 24.39780 | 15238 ft | 334 kts | 208° |
| 2026-04-25 15:38 | 59.98409 | 24.37767 | 15873 ft | 337 kts | 207° |
| 2026-04-25 15:39 | 59.96287 | 24.35743 | 16483 ft | 339 kts | 208° |
| 2026-04-25 15:39 | 59.94147 | 24.33704 | 17107 ft | 342 kts | 208° |
| 2026-04-25 15:39 | 59.91994 | 24.31647 | 17713 ft | 344 kts | 208° |
| 2026-04-25 15:39 | 59.89824 | 24.29579 | 18257 ft | 347 kts | 208° |
| 2026-04-25 15:40 | 59.87639 | 24.27507 | 18801 ft | 349 kts | 208° |
| 2026-04-25 15:40 | 59.86925 | 24.26832 | 18965 ft | 350 kts | 208° |
| 2026-04-25 15:40 | 59.83226 | 24.23341 | 19886 ft | 353 kts | 208° |
| 2026-04-25 15:40 | 59.80999 | 24.21242 | 20430 ft | 355 kts | 208° |
| 2026-04-25 15:41 | 59.78757 | 24.19131 | 20982 ft | 358 kts | 208° |
| 2026-04-25 15:41 | 59.76530 | 24.17034 | 21509 ft | 360 kts | 208° |
| 2026-04-25 15:41 | 59.74261 | 24.14892 | 22035 ft | 362 kts | 209° |
| 2026-04-25 15:41 | 59.72093 | 24.12356 | 22539 ft | 362 kts | 218° |
| 2026-04-25 15:42 | 59.70042 | 24.09434 | 23036 ft | 364 kts | 218° |
| 2026-04-25 15:42 | 59.67967 | 24.06488 | 23425 ft | 366 kts | 218° |
| 2026-04-25 15:42 | 59.65886 | 24.03545 | 23798 ft | 369 kts | 218° |
| 2026-04-25 15:42 | 59.63788 | 24.00587 | 24148 ft | 372 kts | 218° |
| 2026-04-25 15:43 | 59.62388 | 23.98618 | 24379 ft | 374 kts | 218° |
| 2026-04-25 15:43 | 59.60257 | 23.95626 | 24715 ft | 377 kts | 219° |
| 2026-04-25 15:43 | 59.58111 | 23.92611 | 25040 ft | 380 kts | 219° |
| 2026-04-25 15:43 | 59.55942 | 23.89561 | 25369 ft | 383 kts | 219° |
| 2026-04-25 15:44 | 59.53051 | 23.85499 | 25790 ft | 387 kts | 219° |
| 2026-04-25 15:44 | 59.51564 | 23.83416 | 26001 ft | 389 kts | 219° |
| 2026-04-25 15:44 | 59.49349 | 23.80315 | 26330 ft | 392 kts | 219° |
| 2026-04-25 15:44 | 59.47253 | 23.76993 | 26630 ft | 392 kts | 227° |
| 2026-04-25 15:45 | 59.45384 | 23.73093 | 26929 ft | 393 kts | 230° |
| 2026-04-25 15:45 | 59.43529 | 23.69110 | 27226 ft | 396 kts | 230° |
| 2026-04-25 15:45 | 59.41657 | 23.65096 | 27538 ft | 399 kts | 230° |
| 2026-04-25 15:45 | 59.40414 | 23.62437 | 27736 ft | 400 kts | 230° |
| 2026-04-25 15:46 | 59.37880 | 23.57028 | 28109 ft | 404 kts | 230° |
| 2026-04-25 15:46 | 59.35969 | 23.52964 | 28390 ft | 407 kts | 230° |
| 2026-04-25 15:46 | 59.34044 | 23.48880 | 28667 ft | 409 kts | 230° |
| 2026-04-25 15:46 | 59.32102 | 23.44766 | 28945 ft | 412 kts | 230° |
| 2026-04-25 15:47 | 59.30150 | 23.40635 | 29209 ft | 414 kts | 230° |
| 2026-04-25 15:47 | 59.28183 | 23.36479 | 29463 ft | 417 kts | 230° |
| 2026-04-25 15:47 | 59.26205 | 23.32307 | 29666 ft | 419 kts | 230° |
| 2026-04-25 15:47 | 59.24215 | 23.28119 | 29859 ft | 422 kts | 230° |
| 2026-04-25 15:48 | 59.22216 | 23.23923 | 30088 ft | 422 kts | 231° |
| 2026-04-25 15:48 | 59.20240 | 23.19786 | 30315 ft | 423 kts | 231° |
| 2026-04-25 15:48 | 59.18222 | 23.15565 | 30543 ft | 424 kts | 230° |
| 2026-04-25 15:48 | 59.16206 | 23.11353 | 30784 ft | 425 kts | 230° |
| 2026-04-25 15:49 | 59.14187 | 23.07143 | 31030 ft | 426 kts | 230° |
| 2026-04-25 15:49 | 59.12161 | 23.02924 | 31253 ft | 427 kts | 230° |
| 2026-04-25 15:49 | 59.10127 | 22.98695 | 31469 ft | 428 kts | 230° |
| 2026-04-25 15:49 | 59.08086 | 22.94462 | 31691 ft | 430 kts | 230° |
| 2026-04-25 15:50 | 59.06036 | 22.90219 | 31967 ft | 431 kts | 231° |
| 2026-04-25 15:50 | 59.03981 | 22.85976 | 32187 ft | 432 kts | 230° |
| 2026-04-25 15:50 | 59.01920 | 22.81726 | 32408 ft | 432 kts | 230° |
| 2026-04-25 15:50 | 58.99854 | 22.77476 | 32674 ft | 432 kts | 230° |
| 2026-04-25 15:51 | 58.97785 | 22.73230 | 32911 ft | 433 kts | 230° |
| 2026-04-25 15:51 | 58.96414 | 22.70419 | 33069 ft | 433 kts | 230° |
| 2026-04-25 15:51 | 58.93637 | 22.64726 | 33380 ft | 435 kts | 230° |
| 2026-04-25 15:51 | 58.91588 | 22.60530 | 33587 ft | 435 kts | 230° |
| 2026-04-25 15:52 | 58.89505 | 22.56275 | 33776 ft | 436 kts | 230° |
| 2026-04-25 15:52 | 58.87416 | 22.52023 | 33967 ft | 436 kts | 230° |
| 2026-04-25 15:52 | 58.85323 | 22.47777 | 34159 ft | 436 kts | 230° |
| 2026-04-25 15:52 | 58.83224 | 22.43531 | 34341 ft | 437 kts | 230° |
| 2026-04-25 15:53 | 58.81122 | 22.39290 | 34507 ft | 437 kts | 230° |
| 2026-04-25 15:53 | 58.79022 | 22.35059 | 34664 ft | 437 kts | 230° |
| 2026-04-25 15:53 | 58.76919 | 22.30823 | 34829 ft | 437 kts | 230° |
| 2026-04-25 15:53 | 58.74815 | 22.26589 | 34981 ft | 437 kts | 230° |
| 2026-04-25 15:54 | 58.72701 | 22.22337 | 35133 ft | 438 kts | 230° |
| 2026-04-25 15:54 | 58.70622 | 22.18162 | 35295 ft | 437 kts | 230° |
| 2026-04-25 15:54 | 58.68511 | 22.13931 | 35464 ft | 437 kts | 229° |
| 2026-04-25 15:54 | 58.66402 | 22.09717 | 35530 ft | 437 kts | 230° |
| 2026-04-25 15:55 | 58.62196 | 22.01348 | 35546 ft | 434 kts | 229° |
| 2026-04-25 15:55 | 58.57998 | 21.93028 | 35531 ft | 434 kts | 229° |
| 2026-04-25 15:56 | 58.53797 | 21.84723 | 35550 ft | 433 kts | 229° |
| 2026-04-25 15:56 | 58.49596 | 21.76438 | 35559 ft | 433 kts | 229° |
| 2026-04-25 15:57 | 58.45393 | 21.68175 | 35558 ft | 433 kts | 229° |
| 2026-04-25 15:57 | 58.41179 | 21.59941 | 35570 ft | 434 kts | 230° |
| 2026-04-25 15:58 | 58.36953 | 21.51707 | 35565 ft | 434 kts | 229° |
| 2026-04-25 15:58 | 58.32744 | 21.43543 | 35558 ft | 434 kts | 230° |
| 2026-04-25 15:59 | 58.28506 | 21.35324 | 35564 ft | 434 kts | 229° |
| 2026-04-25 15:59 | 58.24258 | 21.27139 | 35573 ft | 435 kts | 229° |
| 2026-04-25 16:00 | 58.21411 | 21.21685 | 35576 ft | 435 kts | 229° |
| 2026-04-25 16:00 | 58.15719 | 21.10868 | 35592 ft | 435 kts | 229° |
| 2026-04-25 16:01 | 58.11426 | 21.02782 | 35571 ft | 435 kts | 229° |
| 2026-04-25 16:01 | 58.07165 | 20.94763 | 35589 ft | 434 kts | 229° |
| 2026-04-25 16:02 | 58.02870 | 20.86706 | 35598 ft | 434 kts | 229° |
| 2026-04-25 16:02 | 57.98577 | 20.78681 | 35607 ft | 434 kts | 229° |
| 2026-04-25 16:03 | 57.94279 | 20.70681 | 35605 ft | 434 kts | 229° |
| 2026-04-25 16:03 | 57.89978 | 20.62704 | 35601 ft | 434 kts | 229° |
| 2026-04-25 16:04 | 57.85679 | 20.54754 | 35618 ft | 433 kts | 229° |
| 2026-04-25 16:04 | 57.81382 | 20.46848 | 35628 ft | 432 kts | 229° |
| 2026-04-25 16:05 | 57.77108 | 20.39014 | 35630 ft | 432 kts | 229° |
| 2026-04-25 16:06 | 57.70658 | 20.27205 | 35624 ft | 433 kts | 229° |
| 2026-04-25 16:06 | 57.66331 | 20.19378 | 35614 ft | 433 kts | 228° |
| 2026-04-25 16:07 | 57.61883 | 20.11813 | 35637 ft | 433 kts | 227° |
| 2026-04-25 16:07 | 57.57367 | 20.04398 | 35644 ft | 432 kts | 226° |
| 2026-04-25 16:08 | 57.52868 | 19.96960 | 35639 ft | 431 kts | 227° |
| 2026-04-25 16:08 | 57.48391 | 19.89507 | 35639 ft | 431 kts | 227° |
| 2026-04-25 16:09 | 57.43944 | 19.82126 | 35599 ft | 431 kts | 227° |
| 2026-04-25 16:09 | 57.39465 | 19.74720 | 35604 ft | 431 kts | 227° |
| 2026-04-25 16:10 | 57.34980 | 19.67348 | 35628 ft | 431 kts | 227° |
| 2026-04-25 16:10 | 57.30492 | 19.59989 | 35623 ft | 431 kts | 227° |
| 2026-04-25 16:11 | 57.26007 | 19.52651 | 35620 ft | 431 kts | 227° |
| 2026-04-25 16:11 | 57.21510 | 19.45319 | 35621 ft | 431 kts | 227° |
| 2026-04-25 16:12 | 57.17001 | 19.37995 | 35617 ft | 431 kts | 227° |
| 2026-04-25 16:12 | 57.12522 | 19.30760 | 35621 ft | 431 kts | 227° |
| 2026-04-25 16:13 | 57.08012 | 19.23484 | 35630 ft | 431 kts | 227° |
| 2026-04-25 16:13 | 57.03504 | 19.16218 | 35623 ft | 431 kts | 227° |
| 2026-04-25 16:14 | 56.98973 | 19.08964 | 35591 ft | 431 kts | 227° |
| 2026-04-25 16:14 | 56.94455 | 19.01767 | 35608 ft | 430 kts | 227° |
| 2026-04-25 16:15 | 56.89934 | 18.94584 | 35613 ft | 430 kts | 227° |
| 2026-04-25 16:15 | 56.85413 | 18.87423 | 35619 ft | 429 kts | 227° |
| 2026-04-25 16:16 | 56.80933 | 18.80328 | 35619 ft | 429 kts | 227° |
| 2026-04-25 16:16 | 56.76422 | 18.73206 | 35593 ft | 429 kts | 227° |
| 2026-04-25 16:17 | 56.71901 | 18.66119 | 35614 ft | 428 kts | 227° |
| 2026-04-25 16:17 | 56.67386 | 18.59058 | 35622 ft | 428 kts | 227° |
| 2026-04-25 16:18 | 56.62863 | 18.51993 | 35631 ft | 428 kts | 227° |
| 2026-04-25 16:18 | 56.58347 | 18.44957 | 35628 ft | 428 kts | 227° |
| 2026-04-25 16:19 | 56.53821 | 18.37953 | 35600 ft | 427 kts | 227° |
| 2026-04-25 16:19 | 56.49296 | 18.30974 | 35621 ft | 427 kts | 227° |
| 2026-04-25 16:20 | 56.42517 | 18.20529 | 35636 ft | 426 kts | 227° |
| 2026-04-25 16:21 | 56.35769 | 18.10195 | 35644 ft | 426 kts | 227° |
| 2026-04-25 16:21 | 56.31245 | 18.03300 | 35612 ft | 425 kts | 227° |
| 2026-04-25 16:22 | 56.26731 | 17.96437 | 35628 ft | 425 kts | 227° |
| 2026-04-25 16:22 | 56.22212 | 17.89587 | 35637 ft | 424 kts | 227° |
| 2026-04-25 16:23 | 56.17692 | 17.82745 | 35636 ft | 424 kts | 227° |
| 2026-04-25 16:23 | 56.13167 | 17.75929 | 35638 ft | 424 kts | 227° |
| 2026-04-25 16:24 | 56.08672 | 17.69202 | 35601 ft | 423 kts | 227° |
| 2026-04-25 16:24 | 56.04155 | 17.62446 | 35623 ft | 423 kts | 227° |
| 2026-04-25 16:25 | 55.99641 | 17.55714 | 35641 ft | 422 kts | 227° |
| 2026-04-25 16:25 | 55.95122 | 17.48997 | 35642 ft | 422 kts | 227° |
| 2026-04-25 16:26 | 55.90608 | 17.42304 | 35648 ft | 421 kts | 227° |
| 2026-04-25 16:26 | 55.86856 | 17.36765 | 35611 ft | 421 kts | 227° |
| 2026-04-25 16:27 | 55.82338 | 17.30111 | 35640 ft | 420 kts | 227° |
| 2026-04-25 16:27 | 55.77568 | 17.24085 | 35647 ft | 433 kts | 213° |
| 2026-04-25 16:28 | 55.71785 | 17.20498 | 35650 ft | 442 kts | 205° |
| 2026-04-25 16:28 | 55.65868 | 17.17383 | 35649 ft | 448 kts | 199° |
| 2026-04-25 16:28 | 55.62740 | 17.16690 | 35610 ft | 459 kts | 189° |
| 2026-04-25 16:29 | 55.59519 | 17.16974 | 35637 ft | 468 kts | 181° |
| 2026-04-25 16:29 | 55.53037 | 17.18296 | 35646 ft | 469 kts | 181° |
| 2026-04-25 16:30 | 55.46557 | 17.19604 | 35661 ft | 469 kts | 181° |
| 2026-04-25 16:30 | 55.40105 | 17.20894 | 35673 ft | 469 kts | 181° |
| 2026-04-25 16:31 | 55.33611 | 17.22195 | 35655 ft | 468 kts | 182° |
| 2026-04-25 16:31 | 55.27116 | 17.23488 | 35681 ft | 470 kts | 182° |
| 2026-04-25 16:32 | 55.20647 | 17.24771 | 35689 ft | 470 kts | 182° |
| 2026-04-25 16:32 | 55.14136 | 17.26054 | 35707 ft | 470 kts | 182° |
| 2026-04-25 16:33 | 55.07644 | 17.27330 | 35737 ft | 469 kts | 181° |
| 2026-04-25 16:33 | 55.01154 | 17.28615 | 35695 ft | 468 kts | 182° |
| 2026-04-25 16:34 | 54.94676 | 17.29882 | 35703 ft | 468 kts | 182° |
| 2026-04-25 16:34 | 54.88229 | 17.31135 | 35706 ft | 468 kts | 182° |
| 2026-04-25 16:35 | 54.81741 | 17.32388 | 35720 ft | 469 kts | 182° |
| 2026-04-25 16:35 | 54.75254 | 17.33646 | 35721 ft | 469 kts | 182° |
| 2026-04-25 16:36 | 54.68771 | 17.34908 | 35735 ft | 469 kts | 182° |
| 2026-04-25 16:36 | 54.62284 | 17.36157 | 35749 ft | 469 kts | 182° |
| 2026-04-25 16:37 | 54.55804 | 17.37394 | 35749 ft | 468 kts | 182° |
| 2026-04-25 16:37 | 54.49324 | 17.38625 | 35717 ft | 468 kts | 182° |
| 2026-04-25 16:38 | 54.42897 | 17.39830 | 35745 ft | 464 kts | 185° |
| 2026-04-25 16:38 | 54.39710 | 17.39822 | 35757 ft | 452 kts | 194° |
| 2026-04-25 16:38 | 54.36640 | 17.38969 | 35766 ft | 440 kts | 204° |
| 2026-04-25 16:39 | 54.30978 | 17.35500 | 35780 ft | 430 kts | 210° |
| 2026-04-25 16:39 | 54.25396 | 17.31795 | 35739 ft | 430 kts | 211° |
| 2026-04-25 16:40 | 54.19795 | 17.28102 | 35760 ft | 431 kts | 211° |
| 2026-04-25 16:40 | 54.14226 | 17.24441 | 35768 ft | 431 kts | 211° |
| 2026-04-25 16:41 | 54.08626 | 17.20768 | 35790 ft | 431 kts | 211° |
| 2026-04-25 16:41 | 54.00226 | 17.15289 | 35781 ft | 432 kts | 211° |
| 2026-04-25 16:42 | 53.94603 | 17.11620 | 35787 ft | 433 kts | 211° |
| 2026-04-25 16:42 | 53.88981 | 17.07961 | 35811 ft | 432 kts | 211° |
| 2026-04-25 16:43 | 53.83355 | 17.04316 | 35818 ft | 432 kts | 211° |
| 2026-04-25 16:43 | 53.77742 | 17.00690 | 35786 ft | 432 kts | 211° |
| 2026-04-25 16:44 | 53.72111 | 16.97059 | 35823 ft | 433 kts | 211° |
| 2026-04-25 16:44 | 53.66468 | 16.93437 | 35825 ft | 433 kts | 211° |
| 2026-04-25 16:45 | 53.60826 | 16.89831 | 35835 ft | 433 kts | 211° |
| 2026-04-25 16:45 | 53.55220 | 16.86244 | 35782 ft | 433 kts | 211° |
| 2026-04-25 16:46 | 53.49583 | 16.82654 | 35817 ft | 434 kts | 211° |
| 2026-04-25 16:46 | 53.45803 | 16.80258 | 35824 ft | 434 kts | 211° |
| 2026-04-25 16:47 | 53.38283 | 16.75496 | 35831 ft | 434 kts | 211° |
| 2026-04-25 16:47 | 53.32628 | 16.71923 | 35836 ft | 434 kts | 211° |
| 2026-04-25 16:48 | 53.26957 | 16.68348 | 35827 ft | 436 kts | 211° |
| 2026-04-25 16:48 | 53.21269 | 16.64781 | 35834 ft | 436 kts | 210° |
| 2026-04-25 16:49 | 53.15585 | 16.61228 | 35846 ft | 436 kts | 210° |
| 2026-04-25 16:49 | 53.09908 | 16.57680 | 35853 ft | 436 kts | 210° |
| 2026-04-25 16:50 | 53.04213 | 16.54134 | 35839 ft | 438 kts | 210° |
| 2026-04-25 16:50 | 52.98533 | 16.50607 | 35855 ft | 439 kts | 210° |
| 2026-04-25 16:51 | 52.92797 | 16.47062 | 35854 ft | 438 kts | 210° |
| 2026-04-25 16:51 | 52.89012 | 16.44726 | 35866 ft | 438 kts | 210° |
| 2026-04-25 16:52 | 52.81396 | 16.40035 | 35830 ft | 438 kts | 209° |
| 2026-04-25 16:52 | 52.75682 | 16.36528 | 35849 ft | 438 kts | 209° |
| 2026-04-25 16:53 | 52.67094 | 16.31274 | 35864 ft | 438 kts | 209° |
| 2026-04-25 16:54 | 52.61371 | 16.27778 | 35838 ft | 438 kts | 209° |
| 2026-04-25 16:54 | 52.55638 | 16.24293 | 35843 ft | 439 kts | 208° |
| 2026-04-25 16:55 | 52.49926 | 16.20838 | 35857 ft | 439 kts | 208° |
| 2026-04-25 16:55 | 52.44190 | 16.17377 | 35858 ft | 439 kts | 208° |
| 2026-04-25 16:56 | 52.38445 | 16.13916 | 35876 ft | 439 kts | 208° |
| 2026-04-25 16:56 | 52.32743 | 16.10478 | 35886 ft | 439 kts | 208° |
| 2026-04-25 16:57 | 52.26993 | 16.07033 | 35888 ft | 439 kts | 208° |
| 2026-04-25 16:57 | 52.21256 | 16.03608 | 35888 ft | 439 kts | 208° |
| 2026-04-25 16:58 | 52.15511 | 16.00200 | 35842 ft | 439 kts | 208° |
| 2026-04-25 16:58 | 52.09806 | 15.96818 | 35879 ft | 439 kts | 208° |
| 2026-04-25 16:59 | 52.04065 | 15.93418 | 35885 ft | 439 kts | 208° |
| 2026-04-25 16:59 | 51.98327 | 15.90016 | 35896 ft | 438 kts | 208° |
| 2026-04-25 17:00 | 51.92595 | 15.86618 | 35856 ft | 438 kts | 208° |
| 2026-04-25 17:00 | 51.86851 | 15.83247 | 35895 ft | 438 kts | 207° |
| 2026-04-25 17:01 | 51.81170 | 15.79920 | 35902 ft | 437 kts | 207° |
| 2026-04-25 17:01 | 51.75439 | 15.76566 | 35909 ft | 437 kts | 207° |
| 2026-04-25 17:02 | 51.69960 | 15.72598 | 35883 ft | 426 kts | 218° |
| 2026-04-25 17:02 | 51.64841 | 15.67787 | 35894 ft | 426 kts | 218° |
| 2026-04-25 17:03 | 51.59708 | 15.63007 | 35918 ft | 426 kts | 217° |
| 2026-04-25 17:03 | 51.54572 | 15.58228 | 35902 ft | 426 kts | 217° |
| 2026-04-25 17:04 | 51.49436 | 15.53445 | 35916 ft | 427 kts | 217° |
| 2026-04-25 17:04 | 51.44278 | 15.48665 | 35918 ft | 428 kts | 217° |
| 2026-04-25 17:05 | 51.39142 | 15.43938 | 35923 ft | 428 kts | 217° |
| 2026-04-25 17:05 | 51.31384 | 15.36797 | 35933 ft | 428 kts | 217° |
| 2026-04-25 17:06 | 51.26195 | 15.32030 | 35918 ft | 428 kts | 217° |
| 2026-04-25 17:06 | 51.21052 | 15.27330 | 35933 ft | 429 kts | 217° |
| 2026-04-25 17:07 | 51.15850 | 15.22596 | 35936 ft | 431 kts | 217° |
| 2026-04-25 17:07 | 51.10631 | 15.17843 | 35935 ft | 432 kts | 217° |
| 2026-04-25 17:08 | 51.08015 | 15.15462 | 35761 ft | 433 kts | 217° |
| 2026-04-25 17:08 | 51.05359 | 15.13048 | 34699 ft | 442 kts | 217° |
| 2026-04-25 17:08 | 51.02688 | 15.10594 | 33941 ft | 442 kts | 219° |
| 2026-04-25 17:08 | 51.00281 | 15.07685 | 33246 ft | 430 kts | 230° |
| 2026-04-25 17:09 | 50.98159 | 15.04381 | 32623 ft | 425 kts | 231° |
| 2026-04-25 17:09 | 50.96096 | 15.01140 | 32026 ft | 422 kts | 231° |
| 2026-04-25 17:09 | 50.93988 | 14.97833 | 31444 ft | 418 kts | 231° |
| 2026-04-25 17:09 | 50.91950 | 14.94642 | 30902 ft | 415 kts | 231° |
| 2026-04-25 17:10 | 50.89904 | 14.91444 | 30452 ft | 410 kts | 231° |
| 2026-04-25 17:10 | 50.87895 | 14.88316 | 30017 ft | 405 kts | 231° |
| 2026-04-25 17:10 | 50.85832 | 14.85242 | 29283 ft | 409 kts | 224° |
| 2026-04-25 17:10 | 50.83349 | 14.82948 | 28518 ft | 421 kts | 208° |
| 2026-04-25 17:11 | 50.80418 | 14.81804 | 27095 ft | 449 kts | 193° |
| 2026-04-25 17:11 | 50.78339 | 14.81414 | 26184 ft | 459 kts | 192° |
| 2026-04-25 17:11 | 50.75129 | 14.80878 | 25019 ft | 466 kts | 191° |
| 2026-04-25 17:11 | 50.71883 | 14.80378 | 23593 ft | 474 kts | 191° |
| 2026-04-25 17:12 | 50.68540 | 14.79863 | 22029 ft | 486 kts | 190° |
| 2026-04-25 17:12 | 50.65200 | 14.79345 | 21171 ft | 479 kts | 191° |
| 2026-04-25 17:12 | 50.61921 | 14.78822 | 20743 ft | 464 kts | 190° |
| 2026-04-25 17:12 | 50.58777 | 14.78308 | 20614 ft | 445 kts | 191° |
| 2026-04-25 17:13 | 50.55757 | 14.77800 | 20419 ft | 429 kts | 191° |
| 2026-04-25 17:13 | 50.53799 | 14.77462 | 20090 ft | 425 kts | 191° |
| 2026-04-25 17:13 | 50.49914 | 14.76775 | 19202 ft | 424 kts | 191° |
| 2026-04-25 17:13 | 50.46983 | 14.76258 | 18565 ft | 423 kts | 191° |
| 2026-04-25 17:14 | 50.44065 | 14.75751 | 17871 ft | 422 kts | 191° |
| 2026-04-25 17:14 | 50.41141 | 14.75252 | 17124 ft | 422 kts | 191° |
| 2026-04-25 17:14 | 50.38217 | 14.74759 | 16367 ft | 422 kts | 190° |
| 2026-04-25 17:14 | 50.35305 | 14.74270 | 15710 ft | 420 kts | 190° |
| 2026-04-25 17:15 | 50.32412 | 14.73790 | 15089 ft | 417 kts | 190° |
| 2026-04-25 17:15 | 50.29532 | 14.73316 | 14496 ft | 414 kts | 190° |
| 2026-04-25 17:15 | 50.26684 | 14.72844 | 13997 ft | 408 kts | 190° |
| 2026-04-25 17:15 | 50.23881 | 14.72376 | 13502 ft | 402 kts | 190° |
| 2026-04-25 17:16 | 50.21124 | 14.71917 | 13019 ft | 392 kts | 190° |
| 2026-04-25 17:16 | 50.18494 | 14.71488 | 12592 ft | 369 kts | 190° |
| 2026-04-25 17:16 | 50.16030 | 14.71090 | 12218 ft | 352 kts | 191° |
| 2026-04-25 17:16 | 50.13614 | 14.70691 | 11836 ft | 346 kts | 191° |
| 2026-04-25 17:17 | 50.11233 | 14.70291 | 11448 ft | 341 kts | 191° |
| 2026-04-25 17:17 | 50.09099 | 14.69930 | 11087 ft | 338 kts | 191° |
| 2026-04-25 17:17 | 50.06774 | 14.69539 | 10693 ft | 334 kts | 191° |
| 2026-04-25 17:17 | 50.04534 | 14.69169 | 10472 ft | 319 kts | 191° |
| 2026-04-25 17:18 | 50.02348 | 14.69113 | 10107 ft | 310 kts | 177° |
| 2026-04-25 17:18 | 50.00263 | 14.69952 | 9510 ft | 310 kts | 160° |
| 2026-04-25 17:18 | 49.98405 | 14.71685 | 8831 ft | 312 kts | 143° |
| 2026-04-25 17:18 | 49.96682 | 14.73632 | 8207 ft | 303 kts | 159° |
| 2026-04-25 17:19 | 49.94668 | 14.74234 | 7726 ft | 292 kts | 189° |
| 2026-04-25 17:19 | 49.92754 | 14.73495 | 7392 ft | 275 kts | 214° |
| 2026-04-25 17:19 | 49.91361 | 14.71601 | 7392 ft | 264 kts | 240° |
| 2026-04-25 17:19 | 49.90671 | 14.69025 | 7320 ft | 257 kts | 264° |
| 2026-04-25 17:20 | 49.90773 | 14.66295 | 7117 ft | 253 kts | 288° |
| 2026-04-25 17:20 | 49.91605 | 14.63914 | 6839 ft | 252 kts | 306° |
| 2026-04-25 17:20 | 49.92645 | 14.61809 | 6510 ft | 247 kts | 307° |
| 2026-04-25 17:20 | 49.93685 | 14.59714 | 6208 ft | 242 kts | 307° |
| 2026-04-25 17:21 | 49.94700 | 14.57644 | 5878 ft | 239 kts | 306° |
| 2026-04-25 17:21 | 49.95692 | 14.55614 | 5558 ft | 235 kts | 306° |
| 2026-04-25 17:21 | 49.96676 | 14.53602 | 5260 ft | 231 kts | 306° |
| 2026-04-25 17:21 | 49.97638 | 14.51633 | 4959 ft | 227 kts | 306° |
| 2026-04-25 17:22 | 49.98579 | 14.49705 | 4654 ft | 223 kts | 306° |
| 2026-04-25 17:22 | 49.99201 | 14.48431 | 4456 ft | 220 kts | 306° |
| 2026-04-25 17:22 | 50.00419 | 14.45931 | 4063 ft | 217 kts | 306° |
| 2026-04-25 17:22 | 50.01323 | 14.44077 | 3774 ft | 214 kts | 306° |
| 2026-04-25 17:23 | 50.02222 | 14.42230 | 3484 ft | 212 kts | 306° |
| 2026-04-25 17:23 | 50.03119 | 14.40386 | 3207 ft | 210 kts | 306° |
| 2026-04-25 17:23 | 50.03967 | 14.38643 | 2934 ft | 198 kts | 306° |
| 2026-04-25 17:23 | 50.04765 | 14.37001 | 2701 ft | 183 kts | 306° |
| 2026-04-25 17:24 | 50.05508 | 14.35471 | 2447 ft | 167 kts | 306° |
| 2026-04-25 17:24 | 50.06171 | 14.34105 | 2228 ft | 151 kts | 306° |
| 2026-04-25 17:24 | 50.06775 | 14.32860 | 2031 ft | 139 kts | 306° |
| 2026-04-25 17:24 | 50.07346 | 14.31680 | 1854 ft | 134 kts | 306° |
| 2026-04-25 17:25 | 50.07906 | 14.30526 | 1677 ft | 132 kts | 306° |
| 2026-04-25 17:25 | 50.08447 | 14.29412 | 1459 ft | 130 kts | 307° |
| 2026-04-25 17:25 | 50.08993 | 14.28277 | 1314 ft | 131 kts | 307° |
| 2026-04-25 17:25 | 50.09525 | 14.27183 | 1213 ft | 115 kts | 308° |
| 2026-04-25 17:26 | 50.09916 | 14.26368 | 1198 ft | 70 kts | 307° |
| 2026-04-25 17:26 | 50.10105 | 14.25974 | 1190 ft | 27 kts | 307° |
| 2026-04-25 17:26 | 50.10207 | 14.25775 | 1187 ft | 19 kts | 314° |
| 2026-04-25 17:26 | 50.10301 | 14.25685 | 1186 ft | 15 kts | 337° |
| 2026-04-25 17:27 | 50.10419 | 14.25659 | 1183 ft | 17 kts | 6° |
| 2026-04-25 17:27 | 50.10485 | 14.25744 | 1180 ft | 14 kts | 78° |
| 2026-04-25 17:27 | 50.10506 | 14.25902 | 1172 ft | 15 kts | 78° |
| 2026-04-25 17:27 | 50.10513 | 14.25957 | 1175 ft | 15 kts | 79° |
| 2026-04-25 17:28 | 50.10537 | 14.26181 | 1174 ft | 9 kts | 89° |
| 2026-04-25 17:28 | 50.10523 | 14.26268 | 1172 ft | 8 kts | 116° |
| 2026-04-25 17:28 | 50.10493 | 14.26339 | 1170 ft | 8 kts | 124° |
| 2026-04-25 17:28 | 50.10462 | 14.26408 | 1173 ft | 7 kts | 124° |
| 2026-04-25 17:29 | 50.10473 | 14.26467 | 1174 ft | 6 kts | 37° |
| 2026-04-25 17:29 | 50.10484 | 14.26479 | 1172 ft | 0 kts | 35° |
| 2026-04-25 17:29 | 50.10485 | 14.26480 | 1172 ft | 0 kts | 35° |